Time;durP1;ratioP1;P1;durP2;ratioP2;P2;SDS_P1;SDS_P2;PMS_P1;PMS_P2;Temp;Humidity;BMP_temperature;BMP_pressure;BME280_temperature;BME280_humidity;BME280_pressure;Samples;Min_cycle;Max_cycle;Signal;HPM_P1;HPM_P2
2022/09/08 00:01:37;;;;;;;14.68;13.00;;;19.90;99.90;;;;;;5052851;28;20126;-58
2022/09/08 00:04:05;;;;;;;14.68;12.88;;;19.80;99.90;;;;;;5034528;28;20045;-57
2022/09/08 00:06:33;;;;;;;17.05;13.38;;;19.80;99.90;;;;;;5037957;28;20086;-57
2022/09/08 00:08:59;;;;;;;19.33;12.82;;;20.00;99.90;;;;;;5052283;28;20179;-58
2022/09/08 00:11:28;;;;;;;17.23;14.13;;;19.80;99.90;;;;;;5052782;28;20463;-58
2022/09/08 00:13:57;;;;;;;17.60;14.27;;;19.80;99.90;;;;;;5052163;28;20044;-61
2022/09/08 00:16:23;;;;;;;20.92;14.00;;;19.90;99.90;;;;;;5050929;28;20052;-58
2022/09/08 00:18:50;;;;;;;20.92;13.02;;;19.80;99.90;;;;;;5032024;28;20056;-58
2022/09/08 00:21:19;;;;;;;16.23;13.00;;;19.70;99.90;;;;;;5050782;28;20114;-59
2022/09/08 00:23:45;;;;;;;13.75;11.75;;;19.80;99.90;;;;;;5052507;28;20037;-58
2022/09/08 00:26:10;;;;;;;18.65;13.88;;;19.60;99.90;;;;;;5050693;28;20043;-58
2022/09/08 00:28:36;;;;;;;17.30;14.00;;;19.60;99.90;;;;;;5050941;28;20068;-57
2022/09/08 00:31:03;;;;;;;14.80;12.85;;;19.50;99.90;;;;;;5052263;28;20516;-57
2022/09/08 00:33:29;;;;;;;17.35;12.23;;;19.50;99.90;;;;;;5051577;28;20053;-60
2022/09/08 00:35:54;;;;;;;15.93;12.27;;;19.30;99.90;;;;;;5051423;28;20094;-58
2022/09/08 00:38:21;;;;;;;20.10;13.80;;;19.30;99.90;;;;;;5051666;28;20036;-58
2022/09/08 00:40:48;;;;;;;16.52;12.85;;;19.30;99.90;;;;;;5034438;28;20048;-59
2022/09/08 00:43:30;;;;;;;16.42;13.85;;;19.30;99.90;;;;;;5051325;28;20140;-58
2022/09/08 00:45:58;;;;;;;14.88;11.70;;;19.20;99.90;;;;;;5050653;28;20120;-59
2022/09/08 00:48:25;;;;;;;17.45;12.52;;;19.20;99.90;;;;;;5051948;28;20040;-59
2022/09/08 00:50:51;;;;;;;21.55;15.10;;;19.20;99.90;;;;;;5051860;28;20036;-57
2022/09/08 00:53:19;;;;;;;18.80;13.50;;;19.30;99.90;;;;;;5033297;28;20490;-57
2022/09/08 00:55:45;;;;;;;18.40;13.00;;;19.40;99.90;;;;;;5049439;28;20051;-59
2022/09/08 00:58:12;;;;;;;13.82;11.95;;;19.20;99.90;;;;;;5044641;28;20064;-59
2022/09/08 01:00:40;;;;;;;16.98;14.52;;;19.30;99.90;;;;;;5051737;28;20486;-57
2022/09/08 01:03:08;;;;;;;17.60;12.45;;;19.30;99.90;;;;;;5051047;28;20041;-59
2022/09/08 01:05:54;;;;;;;17.70;13.27;;;19.30;99.90;;;;;;5047922;28;20106;-60
2022/09/08 01:14:17;;;;;;;16.63;13.43;;;19.30;99.90;;;;;;5022528;28;20100;-61
2022/09/08 01:16:46;;;;;;;16.45;12.40;;;19.50;99.90;;;;;;5017222;28;20490;-61
2022/09/08 01:19:19;;;;;;;20.98;15.88;;;19.30;99.90;;;;;;5011772;28;20127;-61
2022/09/08 01:22:07;;;;;;;20.55;17.30;;;19.40;99.90;;;;;;5023434;28;20033;-61
2022/09/08 01:24:52;;;;;;;21.38;16.42;;;19.20;99.90;;;;;;5031117;28;20040;-61
2022/09/08 01:27:21;;;;;;;19.80;15.75;;;19.30;99.90;;;;;;5029911;28;20049;-61
2022/09/08 01:29:50;;;;;;;20.02;16.13;;;19.20;99.90;;;;;;5030220;28;20060;-61
2022/09/08 01:32:16;;;;;;;22.67;17.45;;;19.30;99.90;;;;;;5029816;28;20041;-60
2022/09/08 01:34:44;;;;;;;19.08;15.93;;;19.50;99.90;;;;;;4994841;28;20041;-61
2022/09/08 01:37:10;;;;;;;18.38;15.88;;;19.50;99.90;;;;;;5030352;28;20410;-61
2022/09/08 01:39:36;;;;;;;21.40;16.65;;;19.60;99.90;;;;;;5030298;28;20045;-61
2022/09/08 01:42:02;;;;;;;19.40;16.27;;;19.50;99.90;;;;;;5030611;28;20042;-61
2022/09/08 01:44:28;;;;;;;20.88;15.55;;;19.60;99.90;;;;;;5030105;28;20080;-62
2022/09/08 01:46:54;;;;;;;20.70;16.15;;;19.50;99.90;;;;;;5029167;28;20148;-61
2022/09/08 01:49:19;;;;;;;18.05;16.13;;;19.50;99.90;;;;;;5031320;28;20108;-61
2022/09/08 01:51:45;;;;;;;18.65;15.60;;;19.50;99.90;;;;;;5012617;28;20083;-61
2022/09/08 01:54:10;;;;;;;18.52;16.50;;;19.50;99.90;;;;;;5030221;28;20087;-61
2022/09/08 01:56:36;;;;;;;19.92;17.30;;;19.50;99.90;;;;;;4996677;28;20038;-61
2022/09/08 01:59:02;;;;;;;18.17;15.95;;;19.60;99.90;;;;;;5030353;28;20107;-61
2022/09/08 02:01:28;;;;;;;20.80;16.70;;;19.60;99.90;;;;;;5030305;28;20033;-60
2022/09/08 02:03:54;;;;;;;19.95;17.48;;;19.70;99.90;;;;;;5030594;28;20038;-61
2022/09/08 02:06:19;;;;;;;19.52;17.48;;;19.50;99.90;;;;;;5030850;28;20049;-62
2022/09/08 02:08:50;;;;;;;21.98;17.50;;;19.60;99.90;;;;;;5031197;28;20120;-61
2022/09/08 02:11:16;;;;;;;22.13;17.65;;;19.60;99.90;;;;;;5030260;28;20073;-61
2022/09/08 02:13:41;;;;;;;21.55;16.60;;;19.60;99.90;;;;;;5030287;28;20087;-60
2022/09/08 02:16:11;;;;;;;19.13;16.85;;;19.60;99.90;;;;;;5031085;28;20478;-61
2022/09/08 02:18:38;;;;;;;20.77;17.40;;;19.50;99.90;;;;;;5030893;28;20056;-61
2022/09/08 02:21:15;;;;;;;25.98;16.95;;;19.60;99.90;;;;;;5030145;28;20403;-61
2022/09/08 02:23:44;;;;;;;18.98;16.15;;;19.50;99.90;;;;;;5029864;28;20033;-61
2022/09/08 02:26:21;;;;;;;21.77;17.75;;;19.50;99.90;;;;;;5030758;28;20045;-61
2022/09/08 02:28:47;;;;;;;20.13;16.90;;;19.60;99.90;;;;;;5031036;28;20044;-61
2022/09/08 02:31:13;;;;;;;21.85;17.15;;;19.60;99.90;;;;;;5030213;28;20078;-61
2022/09/08 02:33:40;;;;;;;19.15;17.15;;;19.50;99.90;;;;;;5029968;28;20637;-62
2022/09/08 02:36:06;;;;;;;20.73;17.25;;;19.50;99.90;;;;;;5029959;28;20045;-61
2022/09/08 02:38:32;;;;;;;23.42;17.67;;;19.60;99.90;;;;;;5030854;28;20182;-62
2022/09/08 02:40:59;;;;;;;20.42;17.98;;;19.70;99.90;;;;;;5030086;28;20050;-60
2022/09/08 02:43:26;;;;;;;21.83;17.98;;;19.50;99.90;;;;;;5030126;28;20040;-60
2022/09/08 02:45:52;;;;;;;22.27;18.42;;;19.70;99.90;;;;;;5033866;28;20037;-61
2022/09/08 02:48:17;;;;;;;22.20;18.77;;;19.50;99.90;;;;;;5034508;28;20039;-61
2022/09/08 02:50:43;;;;;;;25.65;18.35;;;19.60;99.90;;;;;;5033052;28;20039;-62
2022/09/08 02:53:09;;;;;;;21.38;18.13;;;19.70;99.90;;;;;;5032485;28;20040;-60
2022/09/08 02:55:39;;;;;;;23.45;18.55;;;19.60;99.90;;;;;;5034150;28;20048;-61
2022/09/08 02:58:07;;;;;;;25.52;20.20;;;19.60;99.90;;;;;;5016226;28;20123;-61
2022/09/08 03:00:36;;;;;;;25.80;19.70;;;19.50;99.90;;;;;;5033443;28;20081;-61
2022/09/08 03:03:02;;;;;;;23.75;20.02;;;19.60;99.90;;;;;;5033177;28;20476;-60
2022/09/08 03:05:29;;;;;;;24.13;19.42;;;19.40;99.90;;;;;;5032425;28;20042;-60
2022/09/08 03:07:55;;;;;;;26.73;19.58;;;19.60;99.90;;;;;;5031769;28;20092;-60
2022/09/08 03:10:23;;;;;;;23.73;20.73;;;19.40;99.90;;;;;;5033984;28;20061;-61
2022/09/08 03:12:52;;;;;;;26.08;21.40;;;19.40;99.90;;;;;;5033441;28;20053;-61
2022/09/08 03:15:19;;;;;;;27.70;21.90;;;19.50;99.90;;;;;;5032167;28;20037;-60
2022/09/08 03:17:45;;;;;;;25.58;22.10;;;19.60;99.90;;;;;;5033336;28;20438;-61
2022/09/08 03:20:10;;;;;;;26.83;22.42;;;19.50;99.90;;;;;;5033197;28;20095;-61
2022/09/08 03:22:36;;;;;;;24.60;21.83;;;19.40;99.90;;;;;;5032899;28;20123;-61
2022/09/08 03:25:03;;;;;;;28.58;22.92;;;19.30;99.90;;;;;;5033496;28;20107;-60
2022/09/08 03:27:29;;;;;;;27.60;21.95;;;19.30;99.90;;;;;;5033665;28;20374;-61
2022/09/08 03:29:54;;;;;;;32.85;24.20;;;19.50;99.90;;;;;;5033651;28;20036;-61
2022/09/08 03:32:20;;;;;;;28.00;22.90;;;19.20;99.90;;;;;;5031933;28;20041;-60
2022/09/08 03:34:46;;;;;;;25.35;21.92;;;19.50;99.90;;;;;;5032037;28;20052;-60
2022/09/08 03:37:12;;;;;;;28.35;23.25;;;19.30;99.90;;;;;;5032828;28;20037;-61
2022/09/08 03:39:38;;;;;;;26.30;23.25;;;19.40;99.90;;;;;;5033650;28;20117;-61
2022/09/08 03:42:03;;;;;;;28.30;25.10;;;19.30;99.90;;;;;;5015193;28;20623;-61
2022/09/08 03:44:29;;;;;;;28.95;24.45;;;19.40;99.90;;;;;;5032785;28;20029;-61
2022/09/08 03:46:54;;;;;;;33.72;26.48;;;19.10;99.90;;;;;;5031887;28;20526;-61
2022/09/08 03:49:20;;;;;;;26.85;23.98;;;19.30;99.90;;;;;;5032856;28;20038;-61
2022/09/08 03:51:45;;;;;;;31.67;26.55;;;19.10;99.90;;;;;;5032615;28;20042;-62
2022/09/08 03:56:55;;;;;;;26.75;23.95;;;19.30;99.90;;;;;;5012680;28;20121;-61
2022/09/08 03:59:21;;;;;;;28.38;24.08;;;19.00;99.90;;;;;;5030638;28;20104;-61
2022/09/08 04:01:46;;;;;;;29.25;26.13;;;19.00;99.90;;;;;;5032861;28;20091;-62
2022/09/08 04:04:12;;;;;;;32.42;27.30;;;19.00;99.90;;;;;;5031037;28;20045;-61
2022/09/08 04:06:37;;;;;;;34.22;27.35;;;19.20;99.90;;;;;;5032719;28;20030;-61
2022/09/08 04:09:03;;;;;;;27.25;23.80;;;19.20;99.90;;;;;;5016940;28;20479;-60
2022/09/08 04:11:29;;;;;;;30.38;25.58;;;18.90;99.90;;;;;;5032026;28;20417;-60
2022/09/08 04:13:55;;;;;;;30.33;24.98;;;19.00;99.90;;;;;;5032584;28;20037;-61
2022/09/08 04:16:21;;;;;;;33.03;27.90;;;19.20;99.90;;;;;;5032013;28;20044;-61
2022/09/08 04:18:47;;;;;;;28.98;25.58;;;19.20;99.90;;;;;;5031325;28;20048;-61
2022/09/08 04:21:13;;;;;;;32.45;27.88;;;19.20;99.90;;;;;;5032468;28;20483;-60
2022/09/08 04:23:40;;;;;;;33.13;25.67;;;18.90;99.90;;;;;;5030556;28;20033;-61
2022/09/08 04:26:09;;;;;;;29.92;26.67;;;18.90;99.90;;;;;;5031885;28;20037;-61
2022/09/08 04:28:35;;;;;;;29.55;24.67;;;19.40;99.90;;;;;;5031295;28;20068;-61
2022/09/08 04:31:05;;;;;;;34.38;28.02;;;19.20;99.90;;;;;;5032200;28;20072;-60
2022/09/08 04:33:31;;;;;;;36.08;28.27;;;18.90;99.90;;;;;;5031226;28;20041;-62
2022/09/08 04:35:57;;;;;;;33.17;27.73;;;18.90;99.90;;;;;;5031049;28;20831;-60
2022/09/08 04:38:23;;;;;;;33.50;29.27;;;19.10;99.90;;;;;;5031215;28;20033;-60
2022/09/08 04:40:48;;;;;;;34.13;29.90;;;18.90;99.90;;;;;;5031816;28;20087;-61
2022/09/08 04:43:14;;;;;;;36.97;30.95;;;19.10;99.90;;;;;;5031362;28;20124;-61
2022/09/08 04:45:39;;;;;;;37.92;32.17;;;19.20;99.90;;;;;;5029046;28;20136;-61
2022/09/08 04:48:05;;;;;;;42.80;32.80;;;19.00;99.90;;;;;;5031436;28;20033;-61
2022/09/08 04:50:30;;;;;;;39.10;32.70;;;18.80;99.90;;;;;;5031174;28;20033;-61
2022/09/08 04:52:56;;;;;;;36.92;29.40;;;19.00;99.90;;;;;;5031314;28;20045;-61
2022/09/08 04:55:22;;;;;;;40.95;33.33;;;19.20;99.90;;;;;;5032123;28;20387;-62
2022/09/08 04:57:47;;;;;;;36.03;28.30;;;19.00;99.90;;;;;;5029499;28;20037;-61
2022/09/08 05:00:13;;;;;;;42.42;31.20;;;18.90;99.90;;;;;;5031183;28;20056;-62
2022/09/08 05:02:39;;;;;;;50.28;35.53;;;19.10;99.90;;;;;;5031829;28;20045;-62
2022/09/08 05:05:05;;;;;;;41.03;34.15;;;18.90;99.90;;;;;;5031121;28;20041;-62
2022/09/08 05:07:31;;;;;;;41.42;33.17;;;18.60;99.90;;;;;;5029322;28;20044;-62
2022/09/08 05:09:57;;;;;;;42.85;32.17;;;19.20;99.90;;;;;;5013548;28;20095;-62
2022/09/08 05:12:22;;;;;;;46.35;37.70;;;18.60;99.90;;;;;;5031705;28;20526;-62
2022/09/08 05:14:48;;;;;;;46.03;33.55;;;18.70;99.90;;;;;;5031079;28;20040;-62
2022/09/08 05:17:13;;;;;;;37.40;30.80;;;18.60;99.90;;;;;;5028717;28;20120;-62
2022/09/08 05:19:39;;;;;;;42.47;33.92;;;18.60;99.90;;;;;;5023842;28;20389;-61
2022/09/08 05:22:05;;;;;;;44.33;32.60;;;18.60;99.90;;;;;;5025519;28;20398;-62
2022/09/08 05:24:30;;;;;;;39.00;29.85;;;18.60;99.90;;;;;;5027738;28;20595;-62
2022/09/08 05:26:56;;;;;;;38.50;29.08;;;18.80;99.90;;;;;;5029638;28;20030;-63
2022/09/08 05:29:22;;;;;;;38.40;26.52;;;18.70;99.90;;;;;;5029099;28;20048;-62
2022/09/08 05:31:48;;;;;;;41.53;29.75;;;19.00;99.90;;;;;;5027948;28;20080;-61
2022/09/08 05:34:14;;;;;;;29.92;23.85;;;19.10;99.90;;;;;;5029561;28;20049;-61
2022/09/08 05:36:39;;;;;;;30.98;24.45;;;19.10;99.90;;;;;;5021930;28;20052;-63
2022/09/08 05:39:06;;;;;;;29.77;24.40;;;18.90;99.90;;;;;;5021321;28;20033;-63
2022/09/08 05:41:33;;;;;;;25.02;19.25;;;18.50;99.90;;;;;;5024964;28;20041;-63
2022/09/08 05:43:59;;;;;;;20.92;16.60;;;19.00;99.90;;;;;;5019504;28;20048;-63
2022/09/08 05:46:26;;;;;;;28.67;19.83;;;18.50;99.90;;;;;;5027410;28;20116;-64
2022/09/08 05:48:53;;;;;;;29.40;19.10;;;18.60;99.90;;;;;;5019534;28;20037;-63
2022/09/08 05:51:19;;;;;;;35.95;19.38;;;18.50;99.90;;;;;;5027653;28;20558;-63
2022/09/08 05:53:46;;;;;;;25.08;18.15;;;18.10;99.90;;;;;;5027295;28;20041;-62
2022/09/08 05:56:11;;;;;;;25.77;18.67;;;18.60;99.90;;;;;;5030913;28;20038;-62
2022/09/08 05:58:37;;;;;;;32.40;18.15;;;18.90;99.90;;;;;;5029498;28;20037;-63
2022/09/08 06:01:07;;;;;;;32.47;17.90;;;18.90;99.90;;;;;;5028746;28;20044;-63
2022/09/08 06:03:32;;;;;;;22.73;15.73;;;18.80;99.90;;;;;;5028608;28;20494;-62
2022/09/08 06:06:04;;;;;;;28.95;17.27;;;18.20;99.90;;;;;;5030684;28;20040;-64
2022/09/08 06:08:30;;;;;;;27.67;17.63;;;18.10;99.90;;;;;;5028942;28;20474;-62
2022/09/08 06:10:56;;;;;;;26.83;17.63;;;18.40;99.90;;;;;;5007674;28;20053;-62
2022/09/08 06:13:21;;;;;;;29.08;18.15;;;18.90;99.90;;;;;;5027285;28;20449;-62
2022/09/08 06:15:48;;;;;;;23.85;17.50;;;18.80;99.90;;;;;;5028172;28;20138;-63
2022/09/08 06:18:15;;;;;;;27.20;17.73;;;18.90;99.90;;;;;;5020584;28;20045;-62
2022/09/08 06:20:41;;;;;;;27.35;19.55;;;18.70;99.90;;;;;;5031477;28;20041;-63
2022/09/08 06:23:06;;;;;;;25.10;17.65;;;18.80;99.90;;;;;;5030423;28;20156;-66
2022/09/08 06:25:45;;;;;;;31.20;19.20;;;18.30;99.90;;;;;;5028730;28;20047;-65
2022/09/08 06:28:15;;;;;;;24.20;17.52;;;18.30;99.90;;;;;;4994667;28;20123;-64
2022/09/08 06:30:42;;;;;;;20.52;13.50;;;19.00;99.90;;;;;;5029141;28;20048;-65
2022/09/08 06:33:13;;;;;;;21.80;15.95;;;18.40;99.90;;;;;;5013646;28;20053;-62
2022/09/08 06:35:45;;;;;;;23.80;16.85;;;18.60;99.90;;;;;;5028834;28;20057;-65
2022/09/08 06:38:15;;;;;;;19.15;13.40;;;18.90;99.90;;;;;;5031123;28;20124;-67
2022/09/08 06:40:48;;;;;;;16.35;9.52;;;19.00;99.90;;;;;;5013145;28;20044;-66
2022/09/08 06:43:35;;;;;;;23.90;11.95;;;18.80;99.90;;;;;;5012628;28;20490;-66
2022/09/08 06:46:07;;;;;;;31.52;7.38;;;18.90;99.90;;;;;;5008703;28;20044;-70
2022/09/08 06:48:34;;;;;;;21.73;6.68;;;18.30;99.90;;;;;;5027386;28;20118;-64
2022/09/08 06:51:28;;;;;;;17.65;5.25;;;18.40;99.90;;;;;;5030557;28;20095;-67
2022/09/08 06:54:09;;;;;;;19.85;4.13;;;18.50;99.90;;;;;;5029663;28;20042;-65
2022/09/08 06:56:51;;;;;;;10.88;3.95;;;17.90;99.90;;;;;;5014192;28;20048;-66
2022/09/08 06:59:31;;;;;;;4.45;3.00;;;17.70;99.90;;;;;;5029614;28;20041;-65
2022/09/08 07:02:25;;;;;;;7.38;3.50;;;17.80;99.90;;;;;;5027615;28;20113;-66
2022/09/08 07:05:25;;;;;;;17.65;3.70;;;18.50;99.90;;;;;;5033383;28;20042;-66
2022/09/08 07:08:16;;;;;;;7.95;3.60;;;17.60;99.90;;;;;;5032120;28;20041;-64
2022/09/08 07:10:51;;;;;;;7.78;4.30;;;18.30;99.90;;;;;;5025203;28;20053;-64
2022/09/08 07:13:37;;;;;;;8.75;3.97;;;17.60;99.90;;;;;;5027404;28;20049;-65
2022/09/08 07:16:22;;;;;;;6.50;4.20;;;18.50;99.90;;;;;;5028918;28;20079;-64
2022/09/08 07:19:22;;;;;;;8.93;4.22;;;18.50;99.90;;;;;;5026376;28;20045;-64
2022/09/08 07:21:53;;;;;;;9.80;4.30;;;18.30;99.90;;;;;;4999232;28;20434;-64
2022/09/08 07:24:24;;;;;;;5.10;3.78;;;18.40;99.90;;;;;;5011361;28;20133;-62
2022/09/08 07:26:52;;;;;;;5.25;3.25;;;18.60;99.90;;;;;;5027938;28;20044;-63
2022/09/08 07:29:29;;;;;;;7.18;3.53;;;18.50;99.90;;;;;;5032474;28;20034;-63
2022/09/08 07:31:57;;;;;;;5.70;3.22;;;18.40;99.90;;;;;;5030758;28;20056;-62
2022/09/08 07:34:26;;;;;;;7.57;3.20;;;18.50;99.90;;;;;;5032981;28;20116;-63
2022/09/08 07:37:17;;;;;;;5.50;3.05;;;18.40;99.90;;;;;;5032883;28;20552;-62
2022/09/08 07:40:04;;;;;;;6.82;2.90;;;17.40;99.90;;;;;;5015710;28;20033;-63
2022/09/08 07:42:31;;;;;;;7.82;3.08;;;18.30;99.90;;;;;;5032689;28;20124;-63
2022/09/08 07:44:58;;;;;;;7.50;3.25;;;17.70;99.90;;;;;;5014283;28;20160;-63
2022/09/08 07:48:03;;;;;;;8.18;3.50;;;17.40;99.90;;;;;;5032697;28;20084;-63
2022/09/08 07:50:53;;;;;;;4.90;3.40;;;18.20;99.90;;;;;;5019543;28;20072;-62
2022/09/08 07:53:43;;;;;;;4.60;3.33;;;17.60;99.90;;;;;;5032750;28;20533;-63
2022/09/08 07:56:27;;;;;;;5.88;3.58;;;17.80;99.90;;;;;;5037276;28;20044;-64
2022/09/08 07:59:20;;;;;;;8.20;4.05;;;18.30;99.90;;;;;;5031152;28;20454;-62
2022/09/08 08:02:26;;;;;;;9.57;4.30;;;18.80;99.90;;;;;;5010301;28;20061;-63
2022/09/08 08:05:15;;;;;;;4.97;3.40;;;18.70;99.90;;;;;;5016862;28;20418;-63
2022/09/08 08:08:11;;;;;;;9.10;4.32;;;18.90;99.90;;;;;;4986753;28;20053;-65
2022/09/08 08:10:50;;;;;;;7.18;4.25;;;18.60;99.90;;;;;;5013089;28;20057;-63
2022/09/08 08:13:42;;;;;;;5.93;3.53;;;17.70;99.90;;;;;;5030657;28;20355;-63
2022/09/08 08:16:12;;;;;;;7.35;3.85;;;18.90;99.90;;;;;;5030844;28;20026;-63
2022/09/08 08:18:44;;;;;;;6.70;3.67;;;18.80;99.90;;;;;;5030209;28;20034;-64
2022/09/08 08:21:23;;;;;;;10.32;4.30;;;17.80;99.90;;;;;;5031544;28;20041;-63
2022/09/08 08:24:22;;;;;;;8.10;3.95;;;17.80;99.90;;;;;;5029669;28;20030;-64
2022/09/08 08:27:02;;;;;;;9.80;4.55;;;18.30;99.90;;;;;;5020188;28;20052;-63
2022/09/08 08:29:49;;;;;;;8.65;4.65;;;18.00;99.90;;;;;;5014487;28;20041;-62
2022/09/08 08:32:18;;;;;;;;;;;18.60;99.90;;;;;;5027259;28;20041;-63
2022/09/08 08:34:51;;;;;;;9.55;4.53;;;19.20;99.90;;;;;;5028385;28;19921;-63
2022/09/08 08:37:24;;;;;;;7.93;4.35;;;18.70;99.90;;;;;;5021654;28;20037;-63
2022/09/08 08:39:55;;;;;;;7.75;4.60;;;18.40;99.90;;;;;;5009219;28;20037;-63
2022/09/08 08:42:29;;;;;;;9.23;4.75;;;18.30;99.90;;;;;;5029088;28;20129;-63
2022/09/08 08:45:20;;;;;;;7.53;4.82;;;18.10;99.90;;;;;;5030066;28;20062;-63
2022/09/08 08:48:07;;;;;;;6.72;5.25;;;19.20;99.90;;;;;;5028175;28;20180;-63
2022/09/08 08:50:45;;;;;;;7.68;5.15;;;18.10;99.90;;;;;;5003984;28;20099;-64
2022/09/08 08:53:25;;;;;;;11.93;6.03;;;19.40;99.90;;;;;;5012512;28;20102;-63
2022/09/08 08:56:15;;;;;;;5.85;4.50;;;18.80;99.90;;;;;;5027361;28;20060;-63
2022/09/08 08:59:09;;;;;;;6.22;4.28;;;18.10;99.90;;;;;;5028862;28;20037;-63
2022/09/08 09:01:58;;;;;;;6.45;4.43;;;18.70;99.90;;;;;;5021467;28;20060;-65
2022/09/08 09:05:02;;;;;;;4.40;3.60;;;18.10;99.90;;;;;;5022877;28;20126;-64
2022/09/08 09:07:43;;;;;;;7.45;4.20;;;18.50;99.90;;;;;;5020408;28;20045;-64
2022/09/08 09:10:39;;;;;;;5.18;3.83;;;18.30;99.90;;;;;;5022317;28;20041;-64
2022/09/08 09:13:24;;;;;;;7.13;3.30;;;19.20;99.90;;;;;;5028483;28;20053;-64
2022/09/08 09:16:11;;;;;;;13.05;4.13;;;18.10;99.90;;;;;;5002192;28;20119;-65
2022/09/08 09:18:49;;;;;;;8.95;4.60;;;19.10;99.90;;;;;;5013400;28;20422;-65
2022/09/08 09:21:26;;;;;;;11.13;5.68;;;17.90;99.90;;;;;;5007308;28;20045;-67
2022/09/08 09:24:10;;;;;;;7.95;5.57;;;18.10;99.90;;;;;;5007170;28;20041;-66
2022/09/08 09:26:38;;;;;;;10.70;6.85;;;19.40;99.90;;;;;;5029627;28;20037;-67
2022/09/08 09:29:21;;;;;;;12.88;7.18;;;18.20;99.90;;;;;;5012002;28;20045;-67
2022/09/08 09:32:08;;;;;;;8.63;6.90;;;19.20;99.90;;;;;;5026300;28;20048;-68
2022/09/08 09:35:17;;;;;;;9.57;5.30;;;18.90;99.90;;;;;;5014362;28;20045;-66
2022/09/08 09:38:18;;;;;;;9.25;4.68;;;18.60;99.90;;;;;;5018188;28;20029;-68
2022/09/08 09:41:11;;;;;;;9.18;4.97;;;18.10;99.90;;;;;;5010503;28;20077;-66
2022/09/08 09:43:56;;;;;;;6.68;4.90;;;19.00;99.90;;;;;;4993982;28;20410;-65
2022/09/08 09:46:48;;;;;;;10.18;5.57;;;19.30;99.90;;;;;;5007406;28;20184;-65
2022/09/08 09:49:41;;;;;;;7.55;5.88;;;18.10;99.90;;;;;;5009183;28;20057;-66
2022/09/08 09:52:35;;;;;;;7.07;4.88;;;18.40;99.90;;;;;;5028298;28;20494;-65
2022/09/08 09:55:30;;;;;;;9.20;5.22;;;18.20;99.90;;;;;;5013278;28;20446;-65
2022/09/08 09:58:24;;;;;;;4.95;4.45;;;19.20;99.90;;;;;;5032641;28;20484;-64
2022/09/08 10:01:22;;;;;;;7.18;4.25;;;18.40;99.90;;;;;;5034631;28;20084;-64
2022/09/08 10:04:16;;;;;;;5.35;4.43;;;19.50;99.90;;;;;;5034489;28;20520;-65
2022/09/08 10:07:03;;;;;;;7.85;4.88;;;18.30;99.90;;;;;;4997645;28;20068;-64
2022/09/08 10:09:48;;;;;;;7.25;5.03;;;18.60;99.90;;;;;;5013406;28;20501;-64
2022/09/08 10:12:46;;;;;;;10.50;6.68;;;18.20;99.90;;;;;;5012028;28;20426;-66
2022/09/08 10:15:36;;;;;;;9.32;5.90;;;18.20;99.90;;;;;;5011866;28;20041;-65
2022/09/08 10:18:20;;;;;;;7.20;5.00;;;19.50;99.90;;;;;;5013035;28;20037;-65
2022/09/08 10:21:01;;;;;;;7.82;5.20;;;18.30;99.90;;;;;;5014091;28;20061;-65
2022/09/08 10:23:46;;;;;;;7.40;4.38;;;18.40;99.90;;;;;;5014113;28;20053;-64
2022/09/08 10:26:30;;;;;;;6.38;4.20;;;19.60;99.90;;;;;;5016385;28;20077;-65
2022/09/08 10:29:38;;;;;;;7.15;4.72;;;18.80;99.90;;;;;;5038753;28;20037;-64
2022/09/08 10:32:19;;;;;;;;;;;18.50;99.90;;;;;;5034663;28;20037;-65
2022/09/08 10:35:23;;;;;;;10.10;4.70;;;18.90;99.90;;;;;;5014824;28;19920;-65
2022/09/08 10:38:00;;;;;;;7.88;3.88;;;19.40;99.90;;;;;;5014159;28;20038;-65
2022/09/08 10:40:43;;;;;;;4.07;3.10;;;19.70;99.90;;;;;;5013037;28;20042;-64
2022/09/08 10:43:28;;;;;;;7.45;4.40;;;18.60;99.90;;;;;;5000062;28;20053;-65
2022/09/08 10:46:23;;;;;;;6.07;4.28;;;19.50;99.90;;;;;;5017291;28;20065;-65
2022/09/08 10:49:31;;;;;;;7.03;3.72;;;19.10;99.90;;;;;;5018948;28;20038;-64
2022/09/08 10:52:26;;;;;;;6.95;4.63;;;20.00;99.90;;;;;;5031528;28;20041;-64
2022/09/08 10:55:00;;;;;;;6.03;3.67;;;18.80;99.90;;;;;;5029708;28;20034;-64
2022/09/08 10:57:56;;;;;;;6.88;4.20;;;20.30;99.90;;;;;;5031286;28;20045;-63
2022/09/08 11:00:23;;;;;;;9.82;4.05;;;20.20;99.90;;;;;;5025773;28;20132;-65
2022/09/08 11:03:27;;;;;;;8.05;3.90;;;20.40;99.90;;;;;;5030837;28;20073;-64
2022/09/08 11:06:02;;;;;;;10.00;3.80;;;19.00;99.90;;;;;;5031897;28;20026;-63
2022/09/08 11:08:49;;;;;;;8.63;3.20;;;19.80;99.90;;;;;;5033524;28;20085;-64
2022/09/08 11:11:49;;;;;;;8.48;3.38;;;19.50;99.90;;;;;;5033059;28;20060;-63
2022/09/08 11:14:52;;;;;;;4.45;2.95;;;19.50;99.90;;;;;;5016262;28;20108;-63
2022/09/08 11:17:23;;;;;;;5.78;2.65;;;19.60;99.90;;;;;;5033563;28;20042;-63
2022/09/08 11:20:02;;;;;;;6.20;2.58;;;20.50;99.90;;;;;;5033507;28;20073;-63
2022/09/08 11:23:06;;;;;;;9.15;3.00;;;19.60;99.90;;;;;;5032798;28;20048;-63
2022/09/08 11:25:58;;;;;;;4.03;2.30;;;20.40;99.90;;;;;;5024725;28;20053;-63
2022/09/08 11:28:46;;;;;;;3.65;2.28;;;20.90;99.90;;;;;;5033894;28;20360;-62
2022/09/08 11:31:43;;;;;;;6.18;2.88;;;20.90;99.90;;;;;;5033053;28;20045;-63
2022/09/08 11:34:31;;;;;;;6.95;3.20;;;19.40;99.90;;;;;;5033803;28;20038;-63
2022/09/08 11:37:24;;;;;;;6.25;3.63;;;20.90;99.90;;;;;;5033506;28;20129;-64
2022/09/08 11:40:26;;;;;;;7.50;4.40;;;20.20;99.90;;;;;;5021429;28;20513;-64
2022/09/08 11:43:16;;;;;;;13.55;7.47;;;21.20;99.90;;;;;;5031544;28;20052;-63
2022/09/08 11:45:56;;;;;;;12.98;9.20;;;19.90;99.90;;;;;;5032049;28;20045;-64
2022/09/08 11:48:41;;;;;;;16.27;10.02;;;20.20;99.90;;;;;;5015137;28;20523;-64
2022/09/08 11:51:43;;;;;;;16.67;11.20;;;19.90;99.90;;;;;;5013690;28;20037;-63
2022/09/08 11:54:19;;;;;;;12.65;8.68;;;19.80;99.90;;;;;;5015177;28;20049;-64
2022/09/08 11:57:21;;;;;;;16.90;11.00;;;20.40;99.90;;;;;;5032250;28;20495;-64
2022/09/08 12:00:11;;;;;;;14.07;10.93;;;20.90;99.90;;;;;;5024740;28;20042;-63
2022/09/08 12:02:55;;;;;;;14.65;10.85;;;19.90;99.90;;;;;;5013124;28;20053;-63
2022/09/08 12:05:42;;;;;;;15.63;11.45;;;20.00;99.90;;;;;;5013083;28;20041;-63
2022/09/08 12:08:16;;;;;;;13.73;10.88;;;21.10;99.90;;;;;;5027218;28;20033;-63
2022/09/08 12:10:59;;;;;;;14.52;12.25;;;19.70;99.90;;;;;;5021157;28;20147;-63
2022/09/08 12:13:29;;;;;;;16.58;11.57;;;21.60;99.90;;;;;;5017496;28;20052;-63
2022/09/08 12:15:58;;;;;;;17.40;12.77;;;21.50;99.90;;;;;;5032662;28;20037;-64
2022/09/08 12:19:01;;;;;;;14.88;13.25;;;20.70;99.90;;;;;;5014615;28;20120;-63
2022/09/08 12:21:49;;;;;;;21.52;12.77;;;20.40;99.90;;;;;;5019714;28;20451;-63
2022/09/08 12:24:43;;;;;;;21.80;12.80;;;22.10;99.90;;;;;;5006145;28;20054;-64
2022/09/08 12:27:20;;;;;;;15.60;13.10;;;21.40;99.90;;;;;;5032295;28;20041;-63
2022/09/08 12:29:55;;;;;;;19.67;14.27;;;22.10;99.90;;;;;;5032605;28;20122;-64
2022/09/08 12:32:27;;;;;;;16.80;13.02;;;21.50;99.90;;;;;;5015632;28;20829;-63
2022/09/08 12:35:17;;;;;;;18.63;13.95;;;20.60;99.90;;;;;;4995014;28;20038;-63
2022/09/08 12:37:58;;;;;;;19.67;13.57;;;21.80;99.90;;;;;;5022124;28;20038;-64
2022/09/08 12:40:49;;;;;;;18.20;13.02;;;22.30;99.90;;;;;;5026420;28;20045;-64
2022/09/08 12:43:22;;;;;;;16.02;13.02;;;20.80;99.90;;;;;;5023855;28;20397;-63
2022/09/08 12:45:48;;;;;;;18.13;13.60;;;21.30;99.90;;;;;;4990568;28;20610;-63
2022/09/08 12:48:36;;;;;;;16.50;13.23;;;20.10;99.90;;;;;;5023742;28;20069;-63
2022/09/08 12:51:22;;;;;;;14.60;13.10;;;21.30;99.90;;;;;;5028125;28;20095;-65
2022/09/08 12:54:11;;;;;;;14.57;11.18;;;21.40;99.90;;;;;;5029276;28;20047;-64
2022/09/08 12:57:11;;;;;;;18.05;9.98;;;22.20;99.90;;;;;;5026067;28;20038;-64
2022/09/08 13:00:22;;;;;;;11.80;6.72;;;21.60;99.90;;;;;;5024479;28;20056;-64
2022/09/08 13:03:13;;;;;;;3.97;2.90;;;20.00;99.90;;;;;;5022351;28;20059;-63
2022/09/08 13:06:07;;;;;;;6.93;3.17;;;21.10;99.90;;;;;;5022121;28;20049;-64
2022/09/08 13:08:54;;;;;;;11.63;3.60;;;21.80;99.90;;;;;;5029622;28;20103;-63
2022/09/08 13:11:37;;;;;;;7.85;3.92;;;20.70;99.90;;;;;;5018899;28;20392;-64
2022/09/08 13:14:08;;;;;;;6.72;4.28;;;19.50;99.90;;;;;;5030670;28;20580;-64
2022/09/08 13:16:52;;;;;;;10.55;5.00;;;21.60;99.90;;;;;;5030135;28;20190;-64
2022/09/08 13:19:17;;;;;;;13.40;5.18;;;20.80;99.90;;;;;;5030204;28;20041;-65
2022/09/08 13:22:03;;;;;;;10.85;5.95;;;20.40;99.90;;;;;;5029706;28;20142;-64
2022/09/08 13:24:44;;;;;;;11.18;5.93;;;21.80;99.90;;;;;;5021192;28;20454;-64
2022/09/08 13:27:21;;;;;;;11.43;5.60;;;21.10;99.90;;;;;;5021018;28;20041;-65
2022/09/08 13:30:05;;;;;;;15.40;5.78;;;21.00;99.90;;;;;;5023628;28;20030;-64